sensor_id;sensor_type;location;lat;lon;timestamp;P1;durP1;ratioP1;P2;durP2;ratioP2
21101;SDS011;10709;49.006;12.100;2023-02-26T00:02:25;5.67;;;1.97;;
21101;SDS011;10709;49.006;12.100;2023-02-26T00:04:52;2.30;;;1.87;;
21101;SDS011;10709;49.006;12.100;2023-02-26T00:07:18;4.50;;;1.80;;
21101;SDS011;10709;49.006;12.100;2023-02-26T00:09:45;3.20;;;1.70;;
21101;SDS011;10709;49.006;12.100;2023-02-26T00:12:11;4.77;;;2.10;;
21101;SDS011;10709;49.006;12.100;2023-02-26T00:14:38;3.93;;;1.70;;
21101;SDS011;10709;49.006;12.100;2023-02-26T00:20:02;3.73;;;1.73;;
21101;SDS011;10709;49.006;12.100;2023-02-26T00:22:30;2.97;;;1.80;;
21101;SDS011;10709;49.006;12.100;2023-02-26T00:24:56;3.83;;;1.83;;
21101;SDS011;10709;49.006;12.100;2023-02-26T00:27:23;3.47;;;1.73;;
21101;SDS011;10709;49.006;12.100;2023-02-26T00:29:49;3.47;;;2.00;;
21101;SDS011;10709;49.006;12.100;2023-02-26T00:32:16;4.10;;;1.57;;
21101;SDS011;10709;49.006;12.100;2023-02-26T00:34:44;2.20;;;1.60;;
21101;SDS011;10709;49.006;12.100;2023-02-26T00:37:33;3.50;;;1.30;;
21101;SDS011;10709;49.006;12.100;2023-02-26T00:42:53;2.73;;;1.30;;
21101;SDS011;10709;49.006;12.100;2023-02-26T00:45:20;4.87;;;1.40;;
21101;SDS011;10709;49.006;12.100;2023-02-26T00:50:40;2.00;;;1.20;;
21101;SDS011;10709;49.006;12.100;2023-02-26T00:53:41;2.23;;;1.30;;
21101;SDS011;10709;49.006;12.100;2023-02-26T00:56:27;3.50;;;1.43;;
21101;SDS011;10709;49.006;12.100;2023-02-26T00:58:53;2.97;;;1.40;;
21101;SDS011;10709;49.006;12.100;2023-02-26T01:01:20;1.77;;;1.27;;
21101;SDS011;10709;49.006;12.100;2023-02-26T01:03:46;1.37;;;1.07;;
21101;SDS011;10709;49.006;12.100;2023-02-26T01:06:14;3.67;;;1.50;;
21101;SDS011;10709;49.006;12.100;2023-02-26T01:08:49;2.80;;;1.70;;
21101;SDS011;10709;49.006;12.100;2023-02-26T01:11:22;3.30;;;1.53;;
21101;SDS011;10709;49.006;12.100;2023-02-26T01:13:48;6.87;;;1.60;;
21101;SDS011;10709;49.006;12.100;2023-02-26T01:16:16;4.47;;;1.70;;
21101;SDS011;10709;49.006;12.100;2023-02-26T01:18:47;3.47;;;1.47;;
21101;SDS011;10709;49.006;12.100;2023-02-26T01:21:21;3.77;;;1.67;;
21101;SDS011;10709;49.006;12.100;2023-02-26T01:23:54;3.60;;;1.53;;
21101;SDS011;10709;49.006;12.100;2023-02-26T01:26:25;3.97;;;1.40;;
21101;SDS011;10709;49.006;12.100;2023-02-26T01:28:53;3.67;;;1.40;;
21101;SDS011;10709;49.006;12.100;2023-02-26T01:34:08;3.57;;;1.60;;
21101;SDS011;10709;49.006;12.100;2023-02-26T01:36:41;2.67;;;1.40;;
21101;SDS011;10709;49.006;12.100;2023-02-26T01:41:54;4.13;;;1.20;;
21101;SDS011;10709;49.006;12.100;2023-02-26T01:47:19;5.43;;;1.17;;
21101;SDS011;10709;49.006;12.100;2023-02-26T01:49:53;5.37;;;1.63;;
21101;SDS011;10709;49.006;12.100;2023-02-26T01:55:32;2.47;;;1.20;;
21101;SDS011;10709;49.006;12.100;2023-02-26T01:57:58;2.40;;;1.50;;
21101;SDS011;10709;49.006;12.100;2023-02-26T02:00:28;3.50;;;1.47;;
21101;SDS011;10709;49.006;12.100;2023-02-26T02:02:56;5.67;;;1.53;;
21101;SDS011;10709;49.006;12.100;2023-02-26T02:05:33;3.57;;;1.33;;
21101;SDS011;10709;49.006;12.100;2023-02-26T02:08:22;3.87;;;1.53;;
21101;SDS011;10709;49.006;12.100;2023-02-26T02:10:49;2.20;;;1.43;;
21101;SDS011;10709;49.006;12.100;2023-02-26T02:25:04;3.53;;;1.10;;
21101;SDS011;10709;49.006;12.100;2023-02-26T02:30:16;1.83;;;1.00;;
21101;SDS011;10709;49.006;12.100;2023-02-26T02:33:09;1.93;;;0.93;;
21101;SDS011;10709;49.006;12.100;2023-02-26T02:35:51;4.27;;;1.03;;
21101;SDS011;10709;49.006;12.100;2023-02-26T02:38:27;3.23;;;1.10;;
21101;SDS011;10709;49.006;12.100;2023-02-26T02:41:06;2.50;;;1.30;;
21101;SDS011;10709;49.006;12.100;2023-02-26T02:43:38;3.57;;;1.20;;
21101;SDS011;10709;49.006;12.100;2023-02-26T02:46:10;2.10;;;1.10;;
21101;SDS011;10709;49.006;12.100;2023-02-26T02:48:42;1.90;;;0.90;;
21101;SDS011;10709;49.006;12.100;2023-02-26T02:54:12;2.73;;;1.03;;
21101;SDS011;10709;49.006;12.100;2023-02-26T02:56:45;2.43;;;1.10;;
21101;SDS011;10709;49.006;12.100;2023-02-26T02:59:22;2.60;;;1.13;;
21101;SDS011;10709;49.006;12.100;2023-02-26T03:02:00;2.93;;;1.10;;
21101;SDS011;10709;49.006;12.100;2023-02-26T03:04:37;2.07;;;1.10;;
21101;SDS011;10709;49.006;12.100;2023-02-26T03:07:05;5.50;;;1.47;;
21101;SDS011;10709;49.006;12.100;2023-02-26T03:09:32;5.53;;;1.40;;
21101;SDS011;10709;49.006;12.100;2023-02-26T03:11:59;1.40;;;1.03;;
21101;SDS011;10709;49.006;12.100;2023-02-26T03:14:25;3.00;;;1.00;;
21101;SDS011;10709;49.006;12.100;2023-02-26T03:17:06;3.13;;;1.30;;
21101;SDS011;10709;49.006;12.100;2023-02-26T03:22:42;3.07;;;1.30;;
21101;SDS011;10709;49.006;12.100;2023-02-26T03:25:20;4.73;;;1.33;;
21101;SDS011;10709;49.006;12.100;2023-02-26T03:27:56;2.83;;;1.40;;
21101;SDS011;10709;49.006;12.100;2023-02-26T03:30:36;1.60;;;1.17;;
21101;SDS011;10709;49.006;12.100;2023-02-26T03:33:11;2.33;;;1.27;;
21101;SDS011;10709;49.006;12.100;2023-02-26T03:35:47;5.53;;;1.60;;
21101;SDS011;10709;49.006;12.100;2023-02-26T03:38:23;2.60;;;1.20;;
21101;SDS011;10709;49.006;12.100;2023-02-26T03:40:53;2.80;;;1.60;;
21101;SDS011;10709;49.006;12.100;2023-02-26T03:43:36;2.17;;;1.13;;
21101;SDS011;10709;49.006;12.100;2023-02-26T03:46:05;2.40;;;1.40;;
21101;SDS011;10709;49.006;12.100;2023-02-26T03:48:34;3.27;;;1.30;;
21101;SDS011;10709;49.006;12.100;2023-02-26T03:51:03;1.63;;;1.30;;
21101;SDS011;10709;49.006;12.100;2023-02-26T03:53:37;3.60;;;1.40;;
21101;SDS011;10709;49.006;12.100;2023-02-26T03:58:44;3.13;;;1.40;;
21101;SDS011;10709;49.006;12.100;2023-02-26T04:01:13;2.53;;;1.60;;
21101;SDS011;10709;49.006;12.100;2023-02-26T04:06:44;1.47;;;1.10;;
21101;SDS011;10709;49.006;12.100;2023-02-26T04:09:12;1.77;;;1.40;;
21101;SDS011;10709;49.006;12.100;2023-02-26T04:11:41;1.97;;;1.40;;
21101;SDS011;10709;49.006;12.100;2023-02-26T04:14:09;2.63;;;1.17;;
21101;SDS011;10709;49.006;12.100;2023-02-26T04:16:35;1.50;;;1.20;;
21101;SDS011;10709;49.006;12.100;2023-02-26T04:19:02;2.90;;;1.33;;
21101;SDS011;10709;49.006;12.100;2023-02-26T04:21:28;3.80;;;1.60;;
21101;SDS011;10709;49.006;12.100;2023-02-26T04:23:55;2.57;;;1.37;;
21101;SDS011;10709;49.006;12.100;2023-02-26T04:26:22;2.70;;;1.60;;
21101;SDS011;10709;49.006;12.100;2023-02-26T04:28:48;1.87;;;1.43;;
21101;SDS011;10709;49.006;12.100;2023-02-26T04:31:15;2.33;;;1.40;;
21101;SDS011;10709;49.006;12.100;2023-02-26T04:33:42;3.30;;;1.60;;
21101;SDS011;10709;49.006;12.100;2023-02-26T04:36:09;3.60;;;1.90;;
21101;SDS011;10709;49.006;12.100;2023-02-26T04:38:35;3.57;;;1.67;;
21101;SDS011;10709;49.006;12.100;2023-02-26T04:41:02;3.27;;;2.00;;
21101;SDS011;10709;49.006;12.100;2023-02-26T04:43:28;3.23;;;1.70;;
21101;SDS011;10709;49.006;12.100;2023-02-26T04:45:55;3.30;;;2.00;;
21101;SDS011;10709;49.006;12.100;2023-02-26T04:48:22;4.07;;;1.90;;
21101;SDS011;10709;49.006;12.100;2023-02-26T04:50:48;3.47;;;2.03;;
21101;SDS011;10709;49.006;12.100;2023-02-26T04:53:15;2.63;;;1.70;;
21101;SDS011;10709;49.006;12.100;2023-02-26T04:55:41;3.43;;;1.70;;
21101;SDS011;10709;49.006;12.100;2023-02-26T04:58:08;3.47;;;2.00;;
21101;SDS011;10709;49.006;12.100;2023-02-26T05:00:34;2.77;;;1.60;;
21101;SDS011;10709;49.006;12.100;2023-02-26T05:03:01;3.33;;;1.80;;
21101;SDS011;10709;49.006;12.100;2023-02-26T05:05:27;3.67;;;1.97;;
21101;SDS011;10709;49.006;12.100;2023-02-26T05:07:54;2.40;;;1.83;;
21101;SDS011;10709;49.006;12.100;2023-02-26T05:10:22;2.77;;;1.90;;
21101;SDS011;10709;49.006;12.100;2023-02-26T05:12:49;2.10;;;1.90;;
21101;SDS011;10709;49.006;12.100;2023-02-26T05:15:16;3.20;;;1.93;;
21101;SDS011;10709;49.006;12.100;2023-02-26T05:17:42;2.50;;;2.00;;
21101;SDS011;10709;49.006;12.100;2023-02-26T05:20:09;2.77;;;2.00;;
21101;SDS011;10709;49.006;12.100;2023-02-26T05:22:37;3.10;;;1.90;;
21101;SDS011;10709;49.006;12.100;2023-02-26T05:25:04;3.93;;;1.97;;
21101;SDS011;10709;49.006;12.100;2023-02-26T05:27:31;3.20;;;2.10;;
21101;SDS011;10709;49.006;12.100;2023-02-26T05:29:58;4.20;;;2.17;;
21101;SDS011;10709;49.006;12.100;2023-02-26T05:32:25;2.30;;;1.80;;
21101;SDS011;10709;49.006;12.100;2023-02-26T05:34:52;3.07;;;2.10;;
21101;SDS011;10709;49.006;12.100;2023-02-26T05:37:18;3.57;;;2.00;;
21101;SDS011;10709;49.006;12.100;2023-02-26T05:39:45;2.83;;;1.93;;
21101;SDS011;10709;49.006;12.100;2023-02-26T05:42:12;5.60;;;2.20;;
21101;SDS011;10709;49.006;12.100;2023-02-26T05:44:38;4.13;;;1.93;;
21101;SDS011;10709;49.006;12.100;2023-02-26T05:47:04;2.43;;;2.07;;
21101;SDS011;10709;49.006;12.100;2023-02-26T05:49:32;3.33;;;2.20;;
21101;SDS011;10709;49.006;12.100;2023-02-26T05:51:58;2.67;;;2.00;;
21101;SDS011;10709;49.006;12.100;2023-02-26T05:54:24;4.67;;;2.20;;
21101;SDS011;10709;49.006;12.100;2023-02-26T05:56:51;4.37;;;2.23;;
21101;SDS011;10709;49.006;12.100;2023-02-26T05:59:18;2.87;;;1.90;;
21101;SDS011;10709;49.006;12.100;2023-02-26T06:01:45;3.33;;;2.10;;
21101;SDS011;10709;49.006;12.100;2023-02-26T06:04:12;3.17;;;2.20;;
21101;SDS011;10709;49.006;12.100;2023-02-26T06:06:38;1.67;;;1.57;;
21101;SDS011;10709;49.006;12.100;2023-02-26T06:09:05;3.50;;;2.10;;
21101;SDS011;10709;49.006;12.100;2023-02-26T06:11:32;3.80;;;2.17;;
21101;SDS011;10709;49.006;12.100;2023-02-26T06:13:59;2.97;;;2.17;;
21101;SDS011;10709;49.006;12.100;2023-02-26T06:16:26;3.53;;;1.97;;
21101;SDS011;10709;49.006;12.100;2023-02-26T06:18:53;3.23;;;2.23;;
21101;SDS011;10709;49.006;12.100;2023-02-26T06:21:19;3.50;;;2.50;;
21101;SDS011;10709;49.006;12.100;2023-02-26T06:23:46;2.80;;;2.10;;
21101;SDS011;10709;49.006;12.100;2023-02-26T06:26:12;3.03;;;2.47;;
21101;SDS011;10709;49.006;12.100;2023-02-26T06:28:39;4.17;;;2.43;;
21101;SDS011;10709;49.006;12.100;2023-02-26T06:31:05;4.60;;;2.30;;
21101;SDS011;10709;49.006;12.100;2023-02-26T06:33:32;3.00;;;2.40;;
21101;SDS011;10709;49.006;12.100;2023-02-26T06:35:58;2.73;;;2.40;;
21101;SDS011;10709;49.006;12.100;2023-02-26T06:38:26;3.77;;;2.50;;
21101;SDS011;10709;49.006;12.100;2023-02-26T06:40:53;6.77;;;2.90;;
21101;SDS011;10709;49.006;12.100;2023-02-26T06:43:20;3.50;;;2.30;;
21101;SDS011;10709;49.006;12.100;2023-02-26T06:45:47;3.57;;;2.63;;
21101;SDS011;10709;49.006;12.100;2023-02-26T06:48:13;3.90;;;2.73;;
21101;SDS011;10709;49.006;12.100;2023-02-26T06:50:40;4.60;;;3.07;;
21101;SDS011;10709;49.006;12.100;2023-02-26T06:53:06;4.97;;;2.70;;
21101;SDS011;10709;49.006;12.100;2023-02-26T06:55:33;3.73;;;2.50;;
21101;SDS011;10709;49.006;12.100;2023-02-26T06:57:59;3.77;;;2.40;;
21101;SDS011;10709;49.006;12.100;2023-02-26T07:00:26;4.33;;;3.37;;
21101;SDS011;10709;49.006;12.100;2023-02-26T07:02:53;9.00;;;6.67;;
21101;SDS011;10709;49.006;12.100;2023-02-26T07:05:19;25.33;;;16.93;;
21101;SDS011;10709;49.006;12.100;2023-02-26T07:07:46;7.47;;;5.57;;
21101;SDS011;10709;49.006;12.100;2023-02-26T07:10:13;8.47;;;3.30;;
21101;SDS011;10709;49.006;12.100;2023-02-26T07:12:39;6.43;;;3.53;;
21101;SDS011;10709;49.006;12.100;2023-02-26T07:15:06;5.07;;;3.87;;
21101;SDS011;10709;49.006;12.100;2023-02-26T07:17:33;13.23;;;9.57;;
21101;SDS011;10709;49.006;12.100;2023-02-26T07:19:59;7.30;;;4.90;;
21101;SDS011;10709;49.006;12.100;2023-02-26T07:22:31;4.50;;;2.77;;
21101;SDS011;10709;49.006;12.100;2023-02-26T07:24:58;3.53;;;2.90;;
21101;SDS011;10709;49.006;12.100;2023-02-26T07:27:25;9.13;;;6.17;;
21101;SDS011;10709;49.006;12.100;2023-02-26T07:29:52;4.53;;;3.50;;
21101;SDS011;10709;49.006;12.100;2023-02-26T07:32:18;3.40;;;2.67;;
21101;SDS011;10709;49.006;12.100;2023-02-26T07:34:45;5.63;;;3.00;;
21101;SDS011;10709;49.006;12.100;2023-02-26T07:37:12;5.10;;;3.40;;
21101;SDS011;10709;49.006;12.100;2023-02-26T07:39:39;2.73;;;2.47;;
21101;SDS011;10709;49.006;12.100;2023-02-26T07:42:05;4.73;;;2.93;;
21101;SDS011;10709;49.006;12.100;2023-02-26T07:44:31;4.83;;;2.67;;
21101;SDS011;10709;49.006;12.100;2023-02-26T07:46:58;4.13;;;2.77;;
21101;SDS011;10709;49.006;12.100;2023-02-26T07:49:25;3.07;;;2.77;;
21101;SDS011;10709;49.006;12.100;2023-02-26T07:51:51;4.20;;;2.97;;
21101;SDS011;10709;49.006;12.100;2023-02-26T07:54:18;3.50;;;3.00;;
21101;SDS011;10709;49.006;12.100;2023-02-26T07:56:44;5.70;;;3.13;;
21101;SDS011;10709;49.006;12.100;2023-02-26T07:59:11;4.23;;;2.90;;
21101;SDS011;10709;49.006;12.100;2023-02-26T08:01:37;3.23;;;2.70;;
21101;SDS011;10709;49.006;12.100;2023-02-26T08:04:04;4.37;;;2.97;;
21101;SDS011;10709;49.006;12.100;2023-02-26T08:06:30;4.33;;;2.77;;
21101;SDS011;10709;49.006;12.100;2023-02-26T08:08:56;5.20;;;2.70;;
21101;SDS011;10709;49.006;12.100;2023-02-26T08:11:23;3.50;;;2.70;;
21101;SDS011;10709;49.006;12.100;2023-02-26T08:13:50;3.70;;;2.60;;
21101;SDS011;10709;49.006;12.100;2023-02-26T08:16:16;4.23;;;3.33;;
21101;SDS011;10709;49.006;12.100;2023-02-26T08:18:43;3.30;;;2.83;;
21101;SDS011;10709;49.006;12.100;2023-02-26T08:21:09;3.87;;;2.80;;
21101;SDS011;10709;49.006;12.100;2023-02-26T08:23:37;4.13;;;2.90;;
21101;SDS011;10709;49.006;12.100;2023-02-26T08:26:05;4.47;;;2.90;;
21101;SDS011;10709;49.006;12.100;2023-02-26T08:28:32;3.77;;;2.90;;
21101;SDS011;10709;49.006;12.100;2023-02-26T08:30:59;7.13;;;3.70;;
21101;SDS011;10709;49.006;12.100;2023-02-26T08:33:27;3.70;;;3.30;;
21101;SDS011;10709;49.006;12.100;2023-02-26T08:35:54;3.03;;;2.70;;
21101;SDS011;10709;49.006;12.100;2023-02-26T08:38:23;2.80;;;2.50;;
21101;SDS011;10709;49.006;12.100;2023-02-26T08:40:55;5.90;;;3.00;;
21101;SDS011;10709;49.006;12.100;2023-02-26T08:43:22;3.90;;;3.30;;
21101;SDS011;10709;49.006;12.100;2023-02-26T08:45:53;3.57;;;3.10;;
21101;SDS011;10709;49.006;12.100;2023-02-26T08:48:21;6.00;;;2.90;;
21101;SDS011;10709;49.006;12.100;2023-02-26T08:50:48;4.47;;;3.00;;
21101;SDS011;10709;49.006;12.100;2023-02-26T08:53:15;5.33;;;2.73;;
21101;SDS011;10709;49.006;12.100;2023-02-26T08:55:41;4.70;;;2.47;;
21101;SDS011;10709;49.006;12.100;2023-02-26T08:58:10;3.03;;;2.20;;
21101;SDS011;10709;49.006;12.100;2023-02-26T09:00:36;3.27;;;2.20;;
21101;SDS011;10709;49.006;12.100;2023-02-26T09:03:02;3.23;;;2.37;;
21101;SDS011;10709;49.006;12.100;2023-02-26T09:05:29;3.53;;;2.10;;
21101;SDS011;10709;49.006;12.100;2023-02-26T09:07:56;3.50;;;2.37;;
21101;SDS011;10709;49.006;12.100;2023-02-26T09:10:22;3.43;;;2.17;;
21101;SDS011;10709;49.006;12.100;2023-02-26T09:12:49;3.57;;;2.10;;
21101;SDS011;10709;49.006;12.100;2023-02-26T09:15:15;2.90;;;2.07;;
21101;SDS011;10709;49.006;12.100;2023-02-26T09:17:43;4.23;;;2.37;;
21101;SDS011;10709;49.006;12.100;2023-02-26T09:20:09;6.97;;;2.80;;
21101;SDS011;10709;49.006;12.100;2023-02-26T09:22:37;3.30;;;2.07;;
21101;SDS011;10709;49.006;12.100;2023-02-26T09:25:03;2.33;;;1.90;;
21101;SDS011;10709;49.006;12.100;2023-02-26T09:27:31;2.07;;;1.70;;
21101;SDS011;10709;49.006;12.100;2023-02-26T09:29:58;3.60;;;1.90;;
21101;SDS011;10709;49.006;12.100;2023-02-26T09:32:25;3.43;;;2.20;;
21101;SDS011;10709;49.006;12.100;2023-02-26T09:34:52;4.00;;;1.97;;
21101;SDS011;10709;49.006;12.100;2023-02-26T09:37:18;2.00;;;1.80;;
21101;SDS011;10709;49.006;12.100;2023-02-26T09:39:45;2.20;;;1.80;;
21101;SDS011;10709;49.006;12.100;2023-02-26T09:45:00;1.97;;;1.73;;
21101;SDS011;10709;49.006;12.100;2023-02-26T09:47:38;3.30;;;1.80;;
21101;SDS011;10709;49.006;12.100;2023-02-26T09:50:10;2.33;;;1.90;;
21101;SDS011;10709;49.006;12.100;2023-02-26T09:52:46;2.67;;;2.03;;
21101;SDS011;10709;49.006;12.100;2023-02-26T09:55:35;3.03;;;2.17;;
21101;SDS011;10709;49.006;12.100;2023-02-26T09:58:08;2.20;;;1.97;;
21101;SDS011;10709;49.006;12.100;2023-02-26T10:03:53;3.50;;;2.00;;
21101;SDS011;10709;49.006;12.100;2023-02-26T10:06:52;3.37;;;2.13;;
21101;SDS011;10709;49.006;12.100;2023-02-26T10:09:25;3.40;;;1.70;;
21101;SDS011;10709;49.006;12.100;2023-02-26T10:17:34;2.50;;;1.60;;
21101;SDS011;10709;49.006;12.100;2023-02-26T10:20:30;1.63;;;1.50;;
21101;SDS011;10709;49.006;12.100;2023-02-26T10:25:51;2.90;;;1.47;;
21101;SDS011;10709;49.006;12.100;2023-02-26T10:28:29;2.37;;;1.70;;
21101;SDS011;10709;49.006;12.100;2023-02-26T10:31:06;2.53;;;1.90;;
21101;SDS011;10709;49.006;12.100;2023-02-26T10:33:47;1.60;;;1.50;;
21101;SDS011;10709;49.006;12.100;2023-02-26T10:36:39;2.07;;;1.40;;
21101;SDS011;10709;49.006;12.100;2023-02-26T10:39:30;1.80;;;1.37;;
21101;SDS011;10709;49.006;12.100;2023-02-26T10:42:01;2.27;;;1.40;;
21101;SDS011;10709;49.006;12.100;2023-02-26T10:44:36;1.73;;;1.50;;
21101;SDS011;10709;49.006;12.100;2023-02-26T10:49:54;2.00;;;1.67;;
21101;SDS011;10709;49.006;12.100;2023-02-26T10:52:27;2.77;;;1.70;;
21101;SDS011;10709;49.006;12.100;2023-02-26T10:57:39;2.37;;;1.40;;
21101;SDS011;10709;49.006;12.100;2023-02-26T11:00:17;2.40;;;1.70;;
21101;SDS011;10709;49.006;12.100;2023-02-26T11:02:46;2.23;;;1.67;;
21101;SDS011;10709;49.006;12.100;2023-02-26T11:05:18;1.70;;;1.30;;
21101;SDS011;10709;49.006;12.100;2023-02-26T11:07:48;5.17;;;1.30;;
21101;SDS011;10709;49.006;12.100;2023-02-26T11:10:21;2.60;;;2.00;;
21101;SDS011;10709;49.006;12.100;2023-02-26T11:12:50;2.70;;;1.90;;
21101;SDS011;10709;49.006;12.100;2023-02-26T11:15:22;3.57;;;2.30;;
21101;SDS011;10709;49.006;12.100;2023-02-26T11:17:52;2.90;;;1.67;;
21101;SDS011;10709;49.006;12.100;2023-02-26T11:20:38;2.83;;;1.63;;
21101;SDS011;10709;49.006;12.100;2023-02-26T11:23:10;3.73;;;1.80;;
21101;SDS011;10709;49.006;12.100;2023-02-26T11:25:40;2.50;;;1.40;;
21101;SDS011;10709;49.006;12.100;2023-02-26T11:28:17;1.40;;;1.30;;
21101;SDS011;10709;49.006;12.100;2023-02-26T11:30:55;2.07;;;1.40;;
21101;SDS011;10709;49.006;12.100;2023-02-26T11:33:23;1.97;;;1.43;;
21101;SDS011;10709;49.006;12.100;2023-02-26T11:36:00;1.83;;;1.60;;
21101;SDS011;10709;49.006;12.100;2023-02-26T11:38:31;1.60;;;1.40;;
21101;SDS011;10709;49.006;12.100;2023-02-26T11:40:58;2.73;;;1.50;;
21101;SDS011;10709;49.006;12.100;2023-02-26T11:43:32;3.00;;;1.67;;
21101;SDS011;10709;49.006;12.100;2023-02-26T11:46:02;2.47;;;1.50;;
21101;SDS011;10709;49.006;12.100;2023-02-26T11:48:41;2.23;;;1.40;;
21101;SDS011;10709;49.006;12.100;2023-02-26T11:51:14;2.00;;;1.37;;
21101;SDS011;10709;49.006;12.100;2023-02-26T11:53:55;2.70;;;1.63;;
21101;SDS011;10709;49.006;12.100;2023-02-26T11:56:31;3.10;;;1.83;;
21101;SDS011;10709;49.006;12.100;2023-02-26T11:59:21;2.47;;;1.70;;
21101;SDS011;10709;49.006;12.100;2023-02-26T12:01:47;1.17;;;1.07;;
21101;SDS011;10709;49.006;12.100;2023-02-26T12:04:17;2.00;;;1.50;;
21101;SDS011;10709;49.006;12.100;2023-02-26T12:06:52;2.27;;;1.30;;
21101;SDS011;10709;49.006;12.100;2023-02-26T12:09:21;1.40;;;1.20;;
21101;SDS011;10709;49.006;12.100;2023-02-26T12:12:03;2.30;;;1.30;;
21101;SDS011;10709;49.006;12.100;2023-02-26T12:20:21;1.93;;;1.50;;
21101;SDS011;10709;49.006;12.100;2023-02-26T12:44:46;1.60;;;1.47;;
21101;SDS011;10709;49.006;12.100;2023-02-26T12:55:38;2.23;;;1.30;;
21101;SDS011;10709;49.006;12.100;2023-02-26T13:01:07;1.60;;;1.30;;
21101;SDS011;10709;49.006;12.100;2023-02-26T13:03:42;2.20;;;1.20;;
21101;SDS011;10709;49.006;12.100;2023-02-26T13:09:19;1.53;;;1.40;;
21101;SDS011;10709;49.006;12.100;2023-02-26T13:14:56;1.63;;;1.20;;
21101;SDS011;10709;49.006;12.100;2023-02-26T13:17:46;2.57;;;1.27;;
21101;SDS011;10709;49.006;12.100;2023-02-26T13:20:25;1.77;;;1.17;;
21101;SDS011;10709;49.006;12.100;2023-02-26T13:23:00;1.30;;;1.20;;
21101;SDS011;10709;49.006;12.100;2023-02-26T13:25:35;1.27;;;1.07;;
21101;SDS011;10709;49.006;12.100;2023-02-26T13:28:10;2.70;;;1.30;;
21101;SDS011;10709;49.006;12.100;2023-02-26T13:30:48;1.57;;;1.40;;
21101;SDS011;10709;49.006;12.100;2023-02-26T13:33:28;1.67;;;1.30;;
21101;SDS011;10709;49.006;12.100;2023-02-26T13:35:57;2.50;;;1.40;;
21101;SDS011;10709;49.006;12.100;2023-02-26T13:41:47;3.33;;;1.53;;
21101;SDS011;10709;49.006;12.100;2023-02-26T13:44:34;1.90;;;1.40;;
21101;SDS011;10709;49.006;12.100;2023-02-26T13:47:14;1.70;;;1.43;;
21101;SDS011;10709;49.006;12.100;2023-02-26T13:49:49;1.80;;;1.50;;
21101;SDS011;10709;49.006;12.100;2023-02-26T13:52:32;3.10;;;1.50;;
21101;SDS011;10709;49.006;12.100;2023-02-26T13:55:01;2.27;;;1.57;;
21101;SDS011;10709;49.006;12.100;2023-02-26T13:57:50;2.93;;;1.57;;
21101;SDS011;10709;49.006;12.100;2023-02-26T14:02:57;3.40;;;1.40;;
21101;SDS011;10709;49.006;12.100;2023-02-26T14:13:21;2.60;;;1.40;;
21101;SDS011;10709;49.006;12.100;2023-02-26T14:24:15;2.40;;;1.73;;
21101;SDS011;10709;49.006;12.100;2023-02-26T14:29:38;2.93;;;2.00;;
21101;SDS011;10709;49.006;12.100;2023-02-26T14:32:11;6.63;;;1.97;;
21101;SDS011;10709;49.006;12.100;2023-02-26T14:35:26;4.23;;;2.13;;
21101;SDS011;10709;49.006;12.100;2023-02-26T14:37:35;2.23;;;2.00;;
21101;SDS011;10709;49.006;12.100;2023-02-26T14:40:09;2.50;;;2.00;;
21101;SDS011;10709;49.006;12.100;2023-02-26T14:47:42;1.83;;;1.70;;
21101;SDS011;10709;49.006;12.100;2023-02-26T14:50:13;2.73;;;1.60;;
21101;SDS011;10709;49.006;12.100;2023-02-26T14:52:44;2.87;;;1.80;;
21101;SDS011;10709;49.006;12.100;2023-02-26T15:01:15;1.93;;;1.70;;
21101;SDS011;10709;49.006;12.100;2023-02-26T15:09:31;2.10;;;1.20;;
21101;SDS011;10709;49.006;12.100;2023-02-26T15:21:24;3.83;;;2.23;;
21101;SDS011;10709;49.006;12.100;2023-02-26T15:23:56;1.90;;;1.70;;
21101;SDS011;10709;49.006;12.100;2023-02-26T15:26:26;3.60;;;1.90;;
21101;SDS011;10709;49.006;12.100;2023-02-26T15:28:55;2.60;;;2.10;;
21101;SDS011;10709;49.006;12.100;2023-02-26T15:31:28;2.20;;;1.90;;
21101;SDS011;10709;49.006;12.100;2023-02-26T15:34:01;2.77;;;2.10;;
21101;SDS011;10709;49.006;12.100;2023-02-26T15:36:29;3.37;;;1.77;;
21101;SDS011;10709;49.006;12.100;2023-02-26T15:38:57;2.53;;;1.97;;
21101;SDS011;10709;49.006;12.100;2023-02-26T15:41:29;2.93;;;2.10;;
21101;SDS011;10709;49.006;12.100;2023-02-26T15:44:00;3.37;;;1.97;;
21101;SDS011;10709;49.006;12.100;2023-02-26T15:46:32;2.50;;;2.00;;
21101;SDS011;10709;49.006;12.100;2023-02-26T15:49:11;2.83;;;2.07;;
21101;SDS011;10709;49.006;12.100;2023-02-26T15:51:40;3.47;;;2.00;;
21101;SDS011;10709;49.006;12.100;2023-02-26T15:54:14;4.27;;;2.00;;
21101;SDS011;10709;49.006;12.100;2023-02-26T15:56:43;2.60;;;2.00;;
21101;SDS011;10709;49.006;12.100;2023-02-26T15:59:15;2.83;;;2.03;;
21101;SDS011;10709;49.006;12.100;2023-02-26T16:01:44;2.70;;;1.93;;
21101;SDS011;10709;49.006;12.100;2023-02-26T16:04:15;3.30;;;2.20;;
21101;SDS011;10709;49.006;12.100;2023-02-26T16:06:44;3.67;;;2.10;;
21101;SDS011;10709;49.006;12.100;2023-02-26T16:09:17;2.63;;;2.10;;
21101;SDS011;10709;49.006;12.100;2023-02-26T16:11:45;6.70;;;1.87;;
21101;SDS011;10709;49.006;12.100;2023-02-26T16:14:16;2.53;;;1.80;;
21101;SDS011;10709;49.006;12.100;2023-02-26T16:16:48;2.87;;;2.10;;
21101;SDS011;10709;49.006;12.100;2023-02-26T16:19:18;2.77;;;2.17;;
21101;SDS011;10709;49.006;12.100;2023-02-26T16:21:48;4.03;;;2.00;;
21101;SDS011;10709;49.006;12.100;2023-02-26T16:24:18;2.57;;;1.80;;
21101;SDS011;10709;49.006;12.100;2023-02-26T16:26:50;2.43;;;1.70;;
21101;SDS011;10709;49.006;12.100;2023-02-26T16:29:25;3.03;;;1.90;;
21101;SDS011;10709;49.006;12.100;2023-02-26T16:31:55;2.87;;;1.93;;
21101;SDS011;10709;49.006;12.100;2023-02-26T16:37:18;3.83;;;2.17;;
21101;SDS011;10709;49.006;12.100;2023-02-26T16:48:18;2.63;;;2.03;;
21101;SDS011;10709;49.006;12.100;2023-02-26T16:50:52;5.67;;;2.30;;
21101;SDS011;10709;49.006;12.100;2023-02-26T16:53:34;3.40;;;2.00;;
21101;SDS011;10709;49.006;12.100;2023-02-26T16:56:03;3.43;;;2.30;;
21101;SDS011;10709;49.006;12.100;2023-02-26T16:58:30;3.83;;;2.57;;
21101;SDS011;10709;49.006;12.100;2023-02-26T17:01:04;4.60;;;2.77;;
21101;SDS011;10709;49.006;12.100;2023-02-26T17:03:34;3.90;;;2.13;;
21101;SDS011;10709;49.006;12.100;2023-02-26T17:06:10;2.93;;;2.20;;
21101;SDS011;10709;49.006;12.100;2023-02-26T17:08:41;9.53;;;4.40;;
21101;SDS011;10709;49.006;12.100;2023-02-26T17:11:21;12.77;;;7.13;;
21101;SDS011;10709;49.006;12.100;2023-02-26T17:14:13;3.97;;;2.50;;
21101;SDS011;10709;49.006;12.100;2023-02-26T17:16:46;4.17;;;2.60;;
21101;SDS011;10709;49.006;12.100;2023-02-26T17:19:14;3.53;;;2.20;;
21101;SDS011;10709;49.006;12.100;2023-02-26T17:21:42;7.33;;;3.80;;
21101;SDS011;10709;49.006;12.100;2023-02-26T17:24:12;4.20;;;3.00;;
21101;SDS011;10709;49.006;12.100;2023-02-26T17:26:42;3.40;;;2.50;;
21101;SDS011;10709;49.006;12.100;2023-02-26T17:29:14;4.10;;;3.00;;
21101;SDS011;10709;49.006;12.100;2023-02-26T17:31:44;3.50;;;2.37;;
21101;SDS011;10709;49.006;12.100;2023-02-26T17:34:11;3.73;;;2.00;;
21101;SDS011;10709;49.006;12.100;2023-02-26T17:36:37;4.20;;;2.20;;
21101;SDS011;10709;49.006;12.100;2023-02-26T17:39:04;3.13;;;2.30;;
21101;SDS011;10709;49.006;12.100;2023-02-26T17:41:30;6.63;;;2.17;;
21101;SDS011;10709;49.006;12.100;2023-02-26T17:43:59;3.10;;;1.87;;
21101;SDS011;10709;49.006;12.100;2023-02-26T17:46:25;3.60;;;2.10;;
21101;SDS011;10709;49.006;12.100;2023-02-26T17:48:52;3.50;;;2.20;;